Weather at Kecskéd Airport

Public forecast

Using degrees Celsius for public forecast. Weather courtesy of forecast.io.

Closest aviation weather report (METAR) to Kecskéd Airport

Closest report is Győr-Pér International Airport, 21.8 nm (40.3 km) WNW. Retrieved 2022/01/27 04:45 UTC (23 minutes ago):

LHPR 270445Z AUTO 27008KT 9000 OVC027 01/M01 Q1026

Closest aviation forecast (TAF) to Kecskéd Airport

Closest forecast is Pápa Air Base, 34.5 nm (63.9 km) WSW. Retrieved 2022-01-27 00:00 UTC (5 hours ago):

TAF LHPA 262315Z 2700/2724 23003KT 9999 BKN025 BECMG 2700/2703 SCT030 BKN200 TEMPO 2700/2707 5000 BR BECMG 2707/2709 CAVOK BECMG 2710/2713 20007KT BECMG 2718/2721 9999 BKN030 BKN080 PROB40 TEMPO 2721/2724 8000 -RASN -RA SCT020 BKN030 BKN080